sensor_id;sensor_type;location;lat;lon;timestamp;P1;durP1;ratioP1;P2;durP2;ratioP2
75793;SDS011;64418;47.536;19.074;2022-10-20T00:02:33;4.23;;;2.43;;
75793;SDS011;64418;47.536;19.074;2022-10-20T00:05:18;3.37;;;2.00;;
75793;SDS011;64418;47.536;19.074;2022-10-20T00:08:03;5.20;;;2.60;;
75793;SDS011;64418;47.536;19.074;2022-10-20T00:10:51;5.45;;;2.45;;
75793;SDS011;64418;47.536;19.074;2022-10-20T00:13:37;3.75;;;2.15;;
75793;SDS011;64418;47.536;19.074;2022-10-20T00:16:22;4.70;;;2.23;;
75793;SDS011;64418;47.536;19.074;2022-10-20T00:19:08;5.23;;;2.27;;
75793;SDS011;64418;47.536;19.074;2022-10-20T00:21:52;3.85;;;2.20;;
75793;SDS011;64418;47.536;19.074;2022-10-20T00:24:38;4.75;;;2.45;;
75793;SDS011;64418;47.536;19.074;2022-10-20T00:27:22;3.42;;;1.77;;
75793;SDS011;64418;47.536;19.074;2022-10-20T00:30:07;3.67;;;2.30;;
75793;SDS011;64418;47.536;19.074;2022-10-20T00:32:51;7.10;;;2.50;;
75793;SDS011;64418;47.536;19.074;2022-10-20T00:35:37;6.03;;;2.85;;
75793;SDS011;64418;47.536;19.074;2022-10-20T00:38:22;5.85;;;2.80;;
75793;SDS011;64418;47.536;19.074;2022-10-20T00:41:08;5.20;;;2.62;;
75793;SDS011;64418;47.536;19.074;2022-10-20T00:43:55;5.75;;;2.45;;
75793;SDS011;64418;47.536;19.074;2022-10-20T00:46:42;4.53;;;2.20;;
75793;SDS011;64418;47.536;19.074;2022-10-20T00:49:25;6.77;;;2.40;;
75793;SDS011;64418;47.536;19.074;2022-10-20T00:52:10;3.67;;;2.15;;
75793;SDS011;64418;47.536;19.074;2022-10-20T00:54:54;5.30;;;2.33;;
75793;SDS011;64418;47.536;19.074;2022-10-20T00:57:40;3.53;;;2.30;;
75793;SDS011;64418;47.536;19.074;2022-10-20T01:00:27;6.47;;;2.00;;
75793;SDS011;64418;47.536;19.074;2022-10-20T01:03:14;6.07;;;2.60;;
75793;SDS011;64418;47.536;19.074;2022-10-20T01:06:02;4.63;;;2.30;;
75793;SDS011;64418;47.536;19.074;2022-10-20T01:08:47;4.28;;;1.80;;
75793;SDS011;64418;47.536;19.074;2022-10-20T01:11:34;5.07;;;2.60;;
75793;SDS011;64418;47.536;19.074;2022-10-20T01:14:32;5.57;;;2.15;;
75793;SDS011;64418;47.536;19.074;2022-10-20T01:17:24;5.28;;;2.22;;
75793;SDS011;64418;47.536;19.074;2022-10-20T01:23:52;4.27;;;2.00;;
75793;SDS011;64418;47.536;19.074;2022-10-20T01:26:58;4.60;;;2.03;;
75793;SDS011;64418;47.536;19.074;2022-10-20T01:30:08;4.22;;;2.50;;
75793;SDS011;64418;47.536;19.074;2022-10-20T01:33:03;4.05;;;2.20;;
75793;SDS011;64418;47.536;19.074;2022-10-20T01:35:57;5.90;;;2.03;;
75793;SDS011;64418;47.536;19.074;2022-10-20T01:38:47;4.27;;;2.30;;
75793;SDS011;64418;47.536;19.074;2022-10-20T01:41:38;7.00;;;2.17;;
75793;SDS011;64418;47.536;19.074;2022-10-20T01:44:28;4.25;;;2.00;;
75793;SDS011;64418;47.536;19.074;2022-10-20T01:47:14;5.15;;;2.00;;
75793;SDS011;64418;47.536;19.074;2022-10-20T01:49:59;4.53;;;2.58;;
75793;SDS011;64418;47.536;19.074;2022-10-20T01:52:45;4.97;;;2.20;;
75793;SDS011;64418;47.536;19.074;2022-10-20T01:55:30;7.07;;;2.27;;
75793;SDS011;64418;47.536;19.074;2022-10-20T01:58:19;3.70;;;2.10;;
75793;SDS011;64418;47.536;19.074;2022-10-20T02:01:27;3.53;;;2.00;;
75793;SDS011;64418;47.536;19.074;2022-10-20T02:04:23;3.83;;;2.47;;
75793;SDS011;64418;47.536;19.074;2022-10-20T02:07:16;6.75;;;2.30;;
75793;SDS011;64418;47.536;19.074;2022-10-20T02:10:08;5.83;;;2.50;;
75793;SDS011;64418;47.536;19.074;2022-10-20T02:12:59;4.00;;;2.75;;
75793;SDS011;64418;47.536;19.074;2022-10-20T02:15:49;4.43;;;2.30;;
75793;SDS011;64418;47.536;19.074;2022-10-20T02:18:41;4.45;;;2.00;;
75793;SDS011;64418;47.536;19.074;2022-10-20T02:21:29;6.05;;;2.20;;
75793;SDS011;64418;47.536;19.074;2022-10-20T02:24:14;5.90;;;2.27;;
75793;SDS011;64418;47.536;19.074;2022-10-20T02:27:02;5.10;;;1.90;;
75793;SDS011;64418;47.536;19.074;2022-10-20T02:29:52;3.28;;;1.92;;
75793;SDS011;64418;47.536;19.074;2022-10-20T02:32:41;4.07;;;2.28;;
75793;SDS011;64418;47.536;19.074;2022-10-20T02:35:30;5.43;;;2.70;;
75793;SDS011;64418;47.536;19.074;2022-10-20T02:38:16;4.07;;;2.10;;
75793;SDS011;64418;47.536;19.074;2022-10-20T02:41:00;6.23;;;2.20;;
75793;SDS011;64418;47.536;19.074;2022-10-20T02:43:44;4.18;;;2.00;;
75793;SDS011;64418;47.536;19.074;2022-10-20T02:46:29;5.22;;;2.40;;
75793;SDS011;64418;47.536;19.074;2022-10-20T02:49:13;5.32;;;2.10;;
75793;SDS011;64418;47.536;19.074;2022-10-20T02:51:58;4.32;;;2.40;;
75793;SDS011;64418;47.536;19.074;2022-10-20T02:54:43;3.80;;;2.00;;
75793;SDS011;64418;47.536;19.074;2022-10-20T02:57:27;6.00;;;2.60;;
75793;SDS011;64418;47.536;19.074;2022-10-20T03:00:11;5.15;;;2.80;;
75793;SDS011;64418;47.536;19.074;2022-10-20T03:02:56;4.70;;;2.42;;
75793;SDS011;64418;47.536;19.074;2022-10-20T03:05:40;5.93;;;2.87;;
75793;SDS011;64418;47.536;19.074;2022-10-20T03:08:26;4.95;;;2.70;;
75793;SDS011;64418;47.536;19.074;2022-10-20T03:11:10;6.57;;;2.60;;
75793;SDS011;64418;47.536;19.074;2022-10-20T03:13:55;5.13;;;2.30;;
75793;SDS011;64418;47.536;19.074;2022-10-20T03:16:38;3.35;;;2.10;;
75793;SDS011;64418;47.536;19.074;2022-10-20T03:19:23;6.95;;;2.53;;
75793;SDS011;64418;47.536;19.074;2022-10-20T03:22:07;4.70;;;2.10;;
75793;SDS011;64418;47.536;19.074;2022-10-20T03:24:54;6.57;;;2.40;;
75793;SDS011;64418;47.536;19.074;2022-10-20T03:27:38;6.53;;;2.50;;
75793;SDS011;64418;47.536;19.074;2022-10-20T03:30:22;4.47;;;2.30;;
75793;SDS011;64418;47.536;19.074;2022-10-20T03:33:06;4.60;;;2.30;;
75793;SDS011;64418;47.536;19.074;2022-10-20T03:35:51;4.85;;;2.45;;
75793;SDS011;64418;47.536;19.074;2022-10-20T03:38:35;7.50;;;2.87;;
75793;SDS011;64418;47.536;19.074;2022-10-20T03:41:21;6.87;;;3.05;;
75793;SDS011;64418;47.536;19.074;2022-10-20T03:44:06;6.70;;;2.80;;
75793;SDS011;64418;47.536;19.074;2022-10-20T03:46:50;12.57;;;3.47;;
75793;SDS011;64418;47.536;19.074;2022-10-20T03:49:34;4.45;;;3.05;;
75793;SDS011;64418;47.536;19.074;2022-10-20T03:52:18;5.70;;;3.25;;
75793;SDS011;64418;47.536;19.074;2022-10-20T03:55:03;4.97;;;2.92;;
75793;SDS011;64418;47.536;19.074;2022-10-20T03:57:49;5.40;;;2.60;;
75793;SDS011;64418;47.536;19.074;2022-10-20T04:00:33;6.20;;;2.83;;
75793;SDS011;64418;47.536;19.074;2022-10-20T04:03:18;5.75;;;2.72;;
75793;SDS011;64418;47.536;19.074;2022-10-20T04:06:02;7.12;;;3.85;;
75793;SDS011;64418;47.536;19.074;2022-10-20T04:08:46;7.75;;;3.55;;
75793;SDS011;64418;47.536;19.074;2022-10-20T04:11:31;6.05;;;3.08;;
75793;SDS011;64418;47.536;19.074;2022-10-20T04:14:16;7.77;;;4.10;;
75793;SDS011;64418;47.536;19.074;2022-10-20T04:17:01;5.23;;;3.30;;
75793;SDS011;64418;47.536;19.074;2022-10-20T04:19:45;6.43;;;3.05;;
75793;SDS011;64418;47.536;19.074;2022-10-20T04:22:30;4.93;;;3.17;;
75793;SDS011;64418;47.536;19.074;2022-10-20T04:25:15;5.20;;;2.80;;
75793;SDS011;64418;47.536;19.074;2022-10-20T04:27:59;6.25;;;3.28;;
75793;SDS011;64418;47.536;19.074;2022-10-20T04:30:47;4.00;;;2.80;;
75793;SDS011;64418;47.536;19.074;2022-10-20T04:33:31;9.63;;;3.50;;
75793;SDS011;64418;47.536;19.074;2022-10-20T04:36:16;8.85;;;4.10;;
75793;SDS011;64418;47.536;19.074;2022-10-20T04:39:00;8.77;;;3.40;;
75793;SDS011;64418;47.536;19.074;2022-10-20T04:41:47;6.85;;;3.20;;
75793;SDS011;64418;47.536;19.074;2022-10-20T04:44:32;5.43;;;3.20;;
75793;SDS011;64418;47.536;19.074;2022-10-20T04:47:18;4.97;;;2.90;;
75793;SDS011;64418;47.536;19.074;2022-10-20T04:50:02;11.17;;;3.60;;
75793;SDS011;64418;47.536;19.074;2022-10-20T04:52:48;8.07;;;4.32;;
75793;SDS011;64418;47.536;19.074;2022-10-20T04:55:32;5.53;;;3.50;;
75793;SDS011;64418;47.536;19.074;2022-10-20T04:58:17;5.72;;;3.78;;
75793;SDS011;64418;47.536;19.074;2022-10-20T05:01:03;13.60;;;4.03;;
75793;SDS011;64418;47.536;19.074;2022-10-20T05:03:50;9.23;;;4.37;;
75793;SDS011;64418;47.536;19.074;2022-10-20T05:06:34;9.70;;;4.00;;
75793;SDS011;64418;47.536;19.074;2022-10-20T05:09:19;8.65;;;4.03;;
75793;SDS011;64418;47.536;19.074;2022-10-20T05:12:03;9.57;;;3.47;;
75793;SDS011;64418;47.536;19.074;2022-10-20T05:14:48;11.35;;;3.80;;
75793;SDS011;64418;47.536;19.074;2022-10-20T05:17:32;8.48;;;4.05;;
75793;SDS011;64418;47.536;19.074;2022-10-20T05:20:18;6.33;;;4.20;;
75793;SDS011;64418;47.536;19.074;2022-10-20T05:23:02;10.43;;;4.90;;
75793;SDS011;64418;47.536;19.074;2022-10-20T05:25:46;7.18;;;4.50;;
75793;SDS011;64418;47.536;19.074;2022-10-20T05:28:31;7.35;;;4.72;;
75793;SDS011;64418;47.536;19.074;2022-10-20T05:31:16;10.35;;;4.93;;
75793;SDS011;64418;47.536;19.074;2022-10-20T05:34:02;11.93;;;5.00;;
75793;SDS011;64418;47.536;19.074;2022-10-20T05:36:49;7.83;;;4.10;;
75793;SDS011;64418;47.536;19.074;2022-10-20T05:39:36;13.10;;;4.73;;
75793;SDS011;64418;47.536;19.074;2022-10-20T05:42:20;8.85;;;4.60;;
75793;SDS011;64418;47.536;19.074;2022-10-20T05:45:05;12.05;;;5.43;;
75793;SDS011;64418;47.536;19.074;2022-10-20T05:47:51;8.48;;;4.50;;
75793;SDS011;64418;47.536;19.074;2022-10-20T05:50:36;11.82;;;4.72;;
75793;SDS011;64418;47.536;19.074;2022-10-20T05:53:25;10.20;;;4.73;;
75793;SDS011;64418;47.536;19.074;2022-10-20T05:56:11;9.07;;;4.43;;
75793;SDS011;64418;47.536;19.074;2022-10-20T05:58:58;12.27;;;4.50;;
75793;SDS011;64418;47.536;19.074;2022-10-20T06:01:43;8.07;;;4.65;;
75793;SDS011;64418;47.536;19.074;2022-10-20T06:04:29;7.72;;;4.28;;
75793;SDS011;64418;47.536;19.074;2022-10-20T06:07:14;12.07;;;5.15;;
75793;SDS011;64418;47.536;19.074;2022-10-20T06:09:59;8.57;;;5.27;;
75793;SDS011;64418;47.536;19.074;2022-10-20T06:12:44;10.43;;;5.00;;
75793;SDS011;64418;47.536;19.074;2022-10-20T06:15:28;8.45;;;4.85;;
75793;SDS011;64418;47.536;19.074;2022-10-20T06:18:12;9.52;;;4.78;;
75793;SDS011;64418;47.536;19.074;2022-10-20T06:21:00;10.73;;;5.47;;
75793;SDS011;64418;47.536;19.074;2022-10-20T06:23:45;14.87;;;5.07;;
75793;SDS011;64418;47.536;19.074;2022-10-20T06:26:32;10.47;;;5.23;;
75793;SDS011;64418;47.536;19.074;2022-10-20T06:29:18;9.50;;;5.40;;
75793;SDS011;64418;47.536;19.074;2022-10-20T06:32:02;9.35;;;4.85;;
75793;SDS011;64418;47.536;19.074;2022-10-20T06:34:47;11.82;;;5.47;;
75793;SDS011;64418;47.536;19.074;2022-10-20T06:37:32;7.68;;;4.87;;
75793;SDS011;64418;47.536;19.074;2022-10-20T06:40:16;8.93;;;5.03;;
75793;SDS011;64418;47.536;19.074;2022-10-20T06:43:02;10.37;;;5.33;;
75793;SDS011;64418;47.536;19.074;2022-10-20T06:45:52;10.40;;;5.28;;
75793;SDS011;64418;47.536;19.074;2022-10-20T06:48:37;11.65;;;5.32;;
75793;SDS011;64418;47.536;19.074;2022-10-20T06:51:21;10.75;;;5.60;;
75793;SDS011;64418;47.536;19.074;2022-10-20T06:54:06;12.95;;;5.35;;
75793;SDS011;64418;47.536;19.074;2022-10-20T06:56:50;10.53;;;4.33;;
75793;SDS011;64418;47.536;19.074;2022-10-20T06:59:36;9.30;;;4.83;;
75793;SDS011;64418;47.536;19.074;2022-10-20T07:02:20;8.93;;;4.28;;
75793;SDS011;64418;47.536;19.074;2022-10-20T07:05:05;9.68;;;4.68;;
75793;SDS011;64418;47.536;19.074;2022-10-20T07:07:51;9.38;;;4.60;;
75793;SDS011;64418;47.536;19.074;2022-10-20T07:10:36;9.23;;;4.70;;
75793;SDS011;64418;47.536;19.074;2022-10-20T07:13:21;12.23;;;4.97;;
75793;SDS011;64418;47.536;19.074;2022-10-20T07:16:07;10.27;;;5.67;;
75793;SDS011;64418;47.536;19.074;2022-10-20T07:18:54;14.43;;;5.87;;
75793;SDS011;64418;47.536;19.074;2022-10-20T07:21:39;10.68;;;5.62;;
75793;SDS011;64418;47.536;19.074;2022-10-20T07:24:23;14.52;;;6.30;;
75793;SDS011;64418;47.536;19.074;2022-10-20T07:27:07;10.95;;;6.80;;
75793;SDS011;64418;47.536;19.074;2022-10-20T07:29:52;10.60;;;6.03;;
75793;SDS011;64418;47.536;19.074;2022-10-20T07:32:38;12.93;;;7.00;;
75793;SDS011;64418;47.536;19.074;2022-10-20T07:35:22;17.05;;;6.97;;
75793;SDS011;64418;47.536;19.074;2022-10-20T07:38:07;16.40;;;7.57;;
75793;SDS011;64418;47.536;19.074;2022-10-20T07:40:51;13.32;;;7.05;;
75793;SDS011;64418;47.536;19.074;2022-10-20T07:43:37;12.57;;;6.57;;
75793;SDS011;64418;47.536;19.074;2022-10-20T07:46:22;12.50;;;6.73;;
75793;SDS011;64418;47.536;19.074;2022-10-20T07:49:08;12.70;;;5.37;;
75793;SDS011;64418;47.536;19.074;2022-10-20T07:51:53;10.57;;;4.45;;
75793;SDS011;64418;47.536;19.074;2022-10-20T07:54:37;6.35;;;4.03;;
75793;SDS011;64418;47.536;19.074;2022-10-20T07:57:21;7.95;;;4.10;;
75793;SDS011;64418;47.536;19.074;2022-10-20T08:00:06;7.43;;;3.93;;
75793;SDS011;64418;47.536;19.074;2022-10-20T08:02:52;7.97;;;3.90;;
75793;SDS011;64418;47.536;19.074;2022-10-20T08:05:38;9.40;;;4.00;;
75793;SDS011;64418;47.536;19.074;2022-10-20T08:08:22;6.62;;;3.62;;
75793;SDS011;64418;47.536;19.074;2022-10-20T08:11:07;8.07;;;4.00;;
75793;SDS011;64418;47.536;19.074;2022-10-20T08:13:52;5.68;;;3.62;;
75793;SDS011;64418;47.536;19.074;2022-10-20T08:16:39;8.57;;;4.03;;
75793;SDS011;64418;47.536;19.074;2022-10-20T08:19:24;7.20;;;3.77;;
75793;SDS011;64418;47.536;19.074;2022-10-20T08:22:10;5.65;;;3.90;;
75793;SDS011;64418;47.536;19.074;2022-10-20T08:24:54;7.10;;;3.80;;
75793;SDS011;64418;47.536;19.074;2022-10-20T08:27:39;6.90;;;3.47;;
75793;SDS011;64418;47.536;19.074;2022-10-20T08:30:23;5.68;;;3.25;;
75793;SDS011;64418;47.536;19.074;2022-10-20T08:33:07;4.97;;;3.00;;
75793;SDS011;64418;47.536;19.074;2022-10-20T08:35:52;5.60;;;2.83;;
75793;SDS011;64418;47.536;19.074;2022-10-20T08:38:38;5.00;;;3.00;;
75793;SDS011;64418;47.536;19.074;2022-10-20T08:41:25;6.10;;;3.35;;
75793;SDS011;64418;47.536;19.074;2022-10-20T08:44:12;4.18;;;2.60;;
75793;SDS011;64418;47.536;19.074;2022-10-20T08:47:10;5.22;;;3.10;;
75793;SDS011;64418;47.536;19.074;2022-10-20T08:50:09;5.77;;;2.97;;
75793;SDS011;64418;47.536;19.074;2022-10-20T08:52:56;8.50;;;3.40;;
75793;SDS011;64418;47.536;19.074;2022-10-20T08:55:44;5.68;;;3.30;;
75793;SDS011;64418;47.536;19.074;2022-10-20T08:58:28;7.57;;;3.42;;
75793;SDS011;64418;47.536;19.074;2022-10-20T09:01:16;7.72;;;3.90;;
75793;SDS011;64418;47.536;19.074;2022-10-20T09:04:08;7.20;;;3.53;;
75793;SDS011;64418;47.536;19.074;2022-10-20T09:07:02;5.97;;;3.15;;
75793;SDS011;64418;47.536;19.074;2022-10-20T09:09:53;8.90;;;3.43;;
75793;SDS011;64418;47.536;19.074;2022-10-20T09:12:47;5.87;;;3.20;;
75793;SDS011;64418;47.536;19.074;2022-10-20T09:15:32;7.28;;;3.92;;
75793;SDS011;64418;47.536;19.074;2022-10-20T09:18:16;7.00;;;3.30;;
75793;SDS011;64418;47.536;19.074;2022-10-20T09:21:02;8.23;;;3.72;;
75793;SDS011;64418;47.536;19.074;2022-10-20T09:23:50;10.67;;;3.33;;
75793;SDS011;64418;47.536;19.074;2022-10-20T09:26:39;7.23;;;3.27;;
75793;SDS011;64418;47.536;19.074;2022-10-20T09:29:34;6.28;;;3.10;;
75793;SDS011;64418;47.536;19.074;2022-10-20T09:32:30;7.12;;;3.05;;
75793;SDS011;64418;47.536;19.074;2022-10-20T09:35:20;5.22;;;2.87;;
75793;SDS011;64418;47.536;19.074;2022-10-20T09:38:15;5.80;;;3.30;;
75793;SDS011;64418;47.536;19.074;2022-10-20T09:41:05;7.73;;;3.17;;
75793;SDS011;64418;47.536;19.074;2022-10-20T09:43:53;7.10;;;3.37;;
75793;SDS011;64418;47.536;19.074;2022-10-20T09:46:44;4.57;;;3.10;;
75793;SDS011;64418;47.536;19.074;2022-10-20T09:49:32;5.55;;;3.22;;
75793;SDS011;64418;47.536;19.074;2022-10-20T09:52:20;6.32;;;3.78;;
75793;SDS011;64418;47.536;19.074;2022-10-20T09:55:15;4.05;;;3.00;;
75793;SDS011;64418;47.536;19.074;2022-10-20T09:58:13;8.67;;;3.20;;
75793;SDS011;64418;47.536;19.074;2022-10-20T10:01:02;6.00;;;3.40;;
75793;SDS011;64418;47.536;19.074;2022-10-20T10:03:50;6.82;;;3.10;;
75793;SDS011;64418;47.536;19.074;2022-10-20T10:06:39;5.35;;;3.42;;
75793;SDS011;64418;47.536;19.074;2022-10-20T10:09:25;8.80;;;3.10;;
75793;SDS011;64418;47.536;19.074;2022-10-20T10:12:14;5.30;;;3.60;;
75793;SDS011;64418;47.536;19.074;2022-10-20T10:15:03;7.23;;;3.30;;
75793;SDS011;64418;47.536;19.074;2022-10-20T10:17:49;4.40;;;3.17;;
75793;SDS011;64418;47.536;19.074;2022-10-20T10:20:35;7.45;;;3.25;;
75793;SDS011;64418;47.536;19.074;2022-10-20T10:23:22;9.02;;;3.17;;
75793;SDS011;64418;47.536;19.074;2022-10-20T10:29:28;4.53;;;3.33;;
75793;SDS011;64418;47.536;19.074;2022-10-20T10:32:15;5.68;;;3.55;;
75793;SDS011;64418;47.536;19.074;2022-10-20T10:35:03;5.27;;;3.00;;
75793;SDS011;64418;47.536;19.074;2022-10-20T10:37:56;6.75;;;2.97;;
75793;SDS011;64418;47.536;19.074;2022-10-20T10:40:44;8.63;;;4.28;;
75793;SDS011;64418;47.536;19.074;2022-10-20T10:43:36;4.20;;;3.00;;
75793;SDS011;64418;47.536;19.074;2022-10-20T10:46:31;6.32;;;3.05;;
75793;SDS011;64418;47.536;19.074;2022-10-20T10:49:25;4.75;;;3.08;;
75793;SDS011;64418;47.536;19.074;2022-10-20T10:52:24;7.17;;;3.50;;
75793;SDS011;64418;47.536;19.074;2022-10-20T10:55:20;4.10;;;2.83;;
75793;SDS011;64418;47.536;19.074;2022-10-20T10:58:13;10.27;;;3.17;;
75793;SDS011;64418;47.536;19.074;2022-10-20T11:01:12;6.75;;;3.35;;
75793;SDS011;64418;47.536;19.074;2022-10-20T11:04:03;6.07;;;3.45;;
75793;SDS011;64418;47.536;19.074;2022-10-20T11:06:47;4.87;;;3.33;;
75793;SDS011;64418;47.536;19.074;2022-10-20T11:09:37;4.40;;;3.00;;
75793;SDS011;64418;47.536;19.074;2022-10-20T11:12:42;5.63;;;3.00;;
75793;SDS011;64418;47.536;19.074;2022-10-20T11:15:43;5.90;;;3.37;;
75793;SDS011;64418;47.536;19.074;2022-10-20T11:18:44;5.43;;;3.33;;
75793;SDS011;64418;47.536;19.074;2022-10-20T11:21:50;8.00;;;2.80;;
75793;SDS011;64418;47.536;19.074;2022-10-20T11:24:47;5.68;;;3.28;;
75793;SDS011;64418;47.536;19.074;2022-10-20T11:27:42;7.40;;;3.47;;
75793;SDS011;64418;47.536;19.074;2022-10-20T11:30:27;5.00;;;2.60;;
75793;SDS011;64418;47.536;19.074;2022-10-20T11:33:13;5.22;;;2.90;;
75793;SDS011;64418;47.536;19.074;2022-10-20T11:36:02;8.35;;;3.28;;
75793;SDS011;64418;47.536;19.074;2022-10-20T11:38:52;6.20;;;3.58;;
75793;SDS011;64418;47.536;19.074;2022-10-20T11:41:39;3.83;;;3.10;;
75793;SDS011;64418;47.536;19.074;2022-10-20T11:44:32;6.12;;;3.05;;
75793;SDS011;64418;47.536;19.074;2022-10-20T11:47:24;5.40;;;3.17;;
75793;SDS011;64418;47.536;19.074;2022-10-20T11:50:13;5.00;;;2.65;;
75793;SDS011;64418;47.536;19.074;2022-10-20T11:53:12;6.15;;;2.67;;
75793;SDS011;64418;47.536;19.074;2022-10-20T11:56:16;7.43;;;2.75;;
75793;SDS011;64418;47.536;19.074;2022-10-20T12:06:02;3.17;;;2.00;;
75793;SDS011;64418;47.536;19.074;2022-10-20T12:09:15;5.20;;;1.98;;
75793;SDS011;64418;47.536;19.074;2022-10-20T12:12:26;3.33;;;2.00;;
75793;SDS011;64418;47.536;19.074;2022-10-20T12:15:19;4.35;;;1.70;;
75793;SDS011;64418;47.536;19.074;2022-10-20T12:18:14;5.57;;;1.77;;
75793;SDS011;64418;47.536;19.074;2022-10-20T12:21:05;3.17;;;2.13;;
75793;SDS011;64418;47.536;19.074;2022-10-20T12:23:51;4.03;;;1.70;;
75793;SDS011;64418;47.536;19.074;2022-10-20T12:29:59;3.47;;;1.98;;
75793;SDS011;64418;47.536;19.074;2022-10-20T12:32:54;4.97;;;1.80;;
75793;SDS011;64418;47.536;19.074;2022-10-20T12:38:41;3.30;;;2.00;;
75793;SDS011;64418;47.536;19.074;2022-10-20T12:41:27;3.50;;;2.00;;
75793;SDS011;64418;47.536;19.074;2022-10-20T12:44:14;4.95;;;1.75;;
75793;SDS011;64418;47.536;19.074;2022-10-20T12:47:02;4.07;;;1.90;;
75793;SDS011;64418;47.536;19.074;2022-10-20T12:49:52;3.47;;;1.92;;
75793;SDS011;64418;47.536;19.074;2022-10-20T12:52:38;3.45;;;1.98;;
75793;SDS011;64418;47.536;19.074;2022-10-20T12:55:25;3.33;;;1.90;;
75793;SDS011;64418;47.536;19.074;2022-10-20T12:58:08;2.70;;;1.87;;
75793;SDS011;64418;47.536;19.074;2022-10-20T13:03:51;4.85;;;2.00;;
75793;SDS011;64418;47.536;19.074;2022-10-20T13:06:43;4.55;;;1.70;;
75793;SDS011;64418;47.536;19.074;2022-10-20T13:09:23;2.85;;;1.58;;
75793;SDS011;64418;47.536;19.074;2022-10-20T13:11:53;3.37;;;1.90;;
75793;SDS011;64418;47.536;19.074;2022-10-20T13:14:34;4.00;;;2.03;;
75793;SDS011;64418;47.536;19.074;2022-10-20T13:20:17;4.35;;;1.90;;
75793;SDS011;64418;47.536;19.074;2022-10-20T13:22:51;4.60;;;2.10;;
75793;SDS011;64418;47.536;19.074;2022-10-20T13:25:25;3.62;;;1.60;;
75793;SDS011;64418;47.536;19.074;2022-10-20T13:28:01;3.40;;;1.90;;
75793;SDS011;64418;47.536;19.074;2022-10-20T13:30:29;3.33;;;2.00;;
75793;SDS011;64418;47.536;19.074;2022-10-20T13:33:00;3.97;;;1.65;;
75793;SDS011;64418;47.536;19.074;2022-10-20T13:35:41;5.22;;;2.03;;
75793;SDS011;64418;47.536;19.074;2022-10-20T13:38:19;3.53;;;1.90;;
75793;SDS011;64418;47.536;19.074;2022-10-20T13:41:10;3.60;;;1.98;;
75793;SDS011;64418;47.536;19.074;2022-10-20T13:44:04;4.47;;;2.03;;
75793;SDS011;64418;47.536;19.074;2022-10-20T13:46:57;3.17;;;1.70;;
75793;SDS011;64418;47.536;19.074;2022-10-20T13:49:54;3.65;;;1.62;;
75793;SDS011;64418;47.536;19.074;2022-10-20T13:52:43;3.28;;;2.00;;
75793;SDS011;64418;47.536;19.074;2022-10-20T13:58:39;4.20;;;1.95;;
75793;SDS011;64418;47.536;19.074;2022-10-20T14:01:23;2.30;;;1.70;;
75793;SDS011;64418;47.536;19.074;2022-10-20T14:04:18;6.27;;;1.70;;
75793;SDS011;64418;47.536;19.074;2022-10-20T14:07:10;2.10;;;1.40;;
75793;SDS011;64418;47.536;19.074;2022-10-20T14:09:56;4.30;;;1.80;;
75793;SDS011;64418;47.536;19.074;2022-10-20T14:12:42;5.10;;;1.80;;
75793;SDS011;64418;47.536;19.074;2022-10-20T14:15:27;4.95;;;1.98;;
75793;SDS011;64418;47.536;19.074;2022-10-20T14:18:19;3.30;;;1.97;;
75793;SDS011;64418;47.536;19.074;2022-10-20T14:21:06;3.10;;;2.00;;
75793;SDS011;64418;47.536;19.074;2022-10-20T14:23:59;5.57;;;2.10;;
75793;SDS011;64418;47.536;19.074;2022-10-20T14:26:45;7.18;;;1.73;;
75793;SDS011;64418;47.536;19.074;2022-10-20T14:29:31;3.95;;;1.92;;
75793;SDS011;64418;47.536;19.074;2022-10-20T14:32:21;5.70;;;1.67;;
75793;SDS011;64418;47.536;19.074;2022-10-20T14:35:14;2.60;;;1.70;;
75793;SDS011;64418;47.536;19.074;2022-10-20T14:38:02;4.07;;;2.10;;
75793;SDS011;64418;47.536;19.074;2022-10-20T14:40:50;6.75;;;1.73;;
75793;SDS011;64418;47.536;19.074;2022-10-20T14:43:39;3.05;;;1.80;;
75793;SDS011;64418;47.536;19.074;2022-10-20T14:46:29;6.22;;;1.90;;
75793;SDS011;64418;47.536;19.074;2022-10-20T14:49:16;3.03;;;1.67;;
75793;SDS011;64418;47.536;19.074;2022-10-20T14:52:18;3.47;;;1.67;;
75793;SDS011;64418;47.536;19.074;2022-10-20T15:01:21;2.75;;;1.87;;
75793;SDS011;64418;47.536;19.074;2022-10-20T15:04:14;4.95;;;1.73;;
75793;SDS011;64418;47.536;19.074;2022-10-20T15:07:09;7.40;;;2.00;;
75793;SDS011;64418;47.536;19.074;2022-10-20T15:09:57;5.57;;;2.00;;
75793;SDS011;64418;47.536;19.074;2022-10-20T15:12:44;2.85;;;1.62;;
75793;SDS011;64418;47.536;19.074;2022-10-20T15:15:34;3.37;;;1.80;;
75793;SDS011;64418;47.536;19.074;2022-10-20T15:18:20;4.12;;;1.92;;
75793;SDS011;64418;47.536;19.074;2022-10-20T15:21:07;7.40;;;1.90;;
75793;SDS011;64418;47.536;19.074;2022-10-20T15:23:51;5.63;;;1.90;;
75793;SDS011;64418;47.536;19.074;2022-10-20T15:26:36;5.57;;;2.00;;
75793;SDS011;64418;47.536;19.074;2022-10-20T15:29:20;4.00;;;1.80;;
75793;SDS011;64418;47.536;19.074;2022-10-20T15:32:05;3.85;;;1.60;;
75793;SDS011;64418;47.536;19.074;2022-10-20T15:34:51;6.05;;;2.08;;
75793;SDS011;64418;47.536;19.074;2022-10-20T15:37:36;7.47;;;2.15;;
75793;SDS011;64418;47.536;19.074;2022-10-20T15:40:20;5.80;;;1.70;;
75793;SDS011;64418;47.536;19.074;2022-10-20T15:43:05;7.33;;;2.03;;
75793;SDS011;64418;47.536;19.074;2022-10-20T15:45:50;3.60;;;1.90;;
75793;SDS011;64418;47.536;19.074;2022-10-20T15:48:36;3.65;;;2.15;;
75793;SDS011;64418;47.536;19.074;2022-10-20T15:51:21;4.25;;;2.20;;
75793;SDS011;64418;47.536;19.074;2022-10-20T15:54:10;3.95;;;2.00;;
75793;SDS011;64418;47.536;19.074;2022-10-20T15:56:56;6.40;;;1.87;;
75793;SDS011;64418;47.536;19.074;2022-10-20T15:59:40;4.37;;;2.00;;
75793;SDS011;64418;47.536;19.074;2022-10-20T16:02:24;3.97;;;1.83;;
75793;SDS011;64418;47.536;19.074;2022-10-20T16:05:09;3.53;;;1.95;;
75793;SDS011;64418;47.536;19.074;2022-10-20T16:07:54;6.82;;;2.12;;
75793;SDS011;64418;47.536;19.074;2022-10-20T16:10:40;5.20;;;2.10;;
75793;SDS011;64418;47.536;19.074;2022-10-20T16:13:25;4.27;;;2.20;;
75793;SDS011;64418;47.536;19.074;2022-10-20T16:16:10;3.87;;;2.03;;
75793;SDS011;64418;47.536;19.074;2022-10-20T16:18:57;5.22;;;2.30;;
75793;SDS011;64418;47.536;19.074;2022-10-20T16:21:41;6.60;;;2.53;;
75793;SDS011;64418;47.536;19.074;2022-10-20T16:24:26;5.70;;;2.30;;
75793;SDS011;64418;47.536;19.074;2022-10-20T16:27:12;5.18;;;2.30;;
75793;SDS011;64418;47.536;19.074;2022-10-20T16:29:56;4.07;;;2.20;;
75793;SDS011;64418;47.536;19.074;2022-10-20T16:32:40;4.70;;;2.10;;
75793;SDS011;64418;47.536;19.074;2022-10-20T16:35:25;3.58;;;2.40;;
75793;SDS011;64418;47.536;19.074;2022-10-20T16:38:09;3.72;;;2.25;;
75793;SDS011;64418;47.536;19.074;2022-10-20T16:40:57;6.75;;;2.20;;
75793;SDS011;64418;47.536;19.074;2022-10-20T16:43:44;6.68;;;2.50;;
75793;SDS011;64418;47.536;19.074;2022-10-20T16:46:29;7.20;;;2.73;;
75793;SDS011;64418;47.536;19.074;2022-10-20T16:49:13;10.33;;;3.33;;
75793;SDS011;64418;47.536;19.074;2022-10-20T16:51:57;6.85;;;3.10;;
75793;SDS011;64418;47.536;19.074;2022-10-20T16:54:42;11.07;;;6.90;;
75793;SDS011;64418;47.536;19.074;2022-10-20T16:57:26;4.78;;;2.90;;
75793;SDS011;64418;47.536;19.074;2022-10-20T17:00:13;7.65;;;3.00;;
75793;SDS011;64418;47.536;19.074;2022-10-20T17:02:58;6.13;;;3.10;;
75793;SDS011;64418;47.536;19.074;2022-10-20T17:05:43;5.40;;;3.00;;
75793;SDS011;64418;47.536;19.074;2022-10-20T17:08:30;6.85;;;3.20;;